createdAt,value
2022-11-03T00:00:52.315Z,9.30
2022-11-03T00:03:53.902Z,9.20
2022-11-03T00:06:58.656Z,9.20
2022-11-03T00:10:00.288Z,9.20
2022-11-03T00:13:01.927Z,9.10
2022-11-03T00:16:03.947Z,9.30
2022-11-03T00:19:06.845Z,9.20
2022-11-03T00:22:09.636Z,9.10
2022-11-03T00:25:11.304Z,9.30
2022-11-03T00:28:12.988Z,9.30
2022-11-03T00:31:20.448Z,9.30
2022-11-03T00:34:22.067Z,9.00
2022-11-03T00:37:23.723Z,9.10
2022-11-03T00:40:25.405Z,9.20
2022-11-03T00:43:28.523Z,9.20
2022-11-03T00:46:30.569Z,9.00
2022-11-03T00:49:32.268Z,9.10
2022-11-03T00:52:33.911Z,9.20
2022-11-03T00:55:35.563Z,8.90
2022-11-03T00:58:37.550Z,9.20
2022-11-03T01:01:47.539Z,9.10
2022-11-03T01:05:10.182Z,8.00
2022-11-03T01:08:11.782Z,9.10
2022-11-03T01:11:38.028Z,8.80
2022-11-03T01:14:45.398Z,8.90
2022-11-03T01:17:47.041Z,8.90
2022-11-03T01:20:55.624Z,8.80
2022-11-03T01:23:59.740Z,8.80
2022-11-03T01:27:01.708Z,8.90
2022-11-03T01:30:03.422Z,8.80
2022-11-03T01:33:05.502Z,8.80
2022-11-03T01:36:08.079Z,8.90
2022-11-03T01:39:14.962Z,8.80
2022-11-03T01:42:16.596Z,8.80
2022-11-03T01:45:18.251Z,8.80
2022-11-03T01:48:21.453Z,8.80
2022-11-03T01:51:23.914Z,8.80
2022-11-03T01:54:28.349Z,8.80
2022-11-03T01:58:02.942Z,8.80
2022-11-03T02:01:07.536Z,8.80
2022-11-03T02:04:31.550Z,8.80
2022-11-03T02:07:40.955Z,8.80
2022-11-03T02:10:42.613Z,8.80
2022-11-03T02:13:44.211Z,8.70
2022-11-03T02:16:57.522Z,8.90
2022-11-03T02:20:15.161Z,8.90
2022-11-03T02:23:30.930Z,8.90
2022-11-03T02:26:32.738Z,9.00
2022-11-03T02:29:34.377Z,8.90
2022-11-03T02:32:53.994Z,8.90
2022-11-03T02:36:17.688Z,8.90
2022-11-03T02:39:28.861Z,8.90
2022-11-03T02:42:31.732Z,8.90
2022-11-03T02:45:33.478Z,8.80
2022-11-03T02:48:35.140Z,8.80
2022-11-03T02:51:36.866Z,8.80
2022-11-03T02:54:42.814Z,8.70
2022-11-03T02:57:55.297Z,8.70
2022-11-03T03:01:18.742Z,8.60
2022-11-03T03:04:26.762Z,8.60
2022-11-03T03:07:32.702Z,8.70
2022-11-03T03:10:42.190Z,8.70
2022-11-03T03:13:44.909Z,8.70
2022-11-03T03:17:05.408Z,8.70
2022-11-03T03:20:34.054Z,8.70
2022-11-03T03:23:40.223Z,8.70
2022-11-03T03:26:46.630Z,8.70
2022-11-03T03:29:57.722Z,8.70
2022-11-03T03:33:01.762Z,8.70
2022-11-03T03:36:07.793Z,8.50
2022-11-03T03:39:12.739Z,8.50
2022-11-03T03:42:15.804Z,8.50
2022-11-03T03:45:20.804Z,8.50
2022-11-03T03:48:22.769Z,8.50
2022-11-03T03:51:27.490Z,8.50
2022-11-03T03:54:29.065Z,8.50
2022-11-03T03:57:31.931Z,8.50
2022-11-03T04:00:33.830Z,8.40
2022-11-03T04:03:35.407Z,8.30
2022-11-03T04:06:37.032Z,8.30
2022-11-03T04:09:38.665Z,8.30
2022-11-03T04:13:00.326Z,8.20
2022-11-03T04:16:37.320Z,8.20
2022-11-03T04:19:57.661Z,8.30
2022-11-03T04:22:59.267Z,8.20
2022-11-03T04:26:01.334Z,8.30
2022-11-03T04:29:06.687Z,8.20
2022-11-03T04:32:20.193Z,8.20
2022-11-03T04:35:23.343Z,8.20
2022-11-03T04:38:29.747Z,8.30
2022-11-03T04:41:33.150Z,8.30
2022-11-03T04:44:34.803Z,8.30
2022-11-03T04:47:38.406Z,8.30
2022-11-03T04:50:45.666Z,8.30
2022-11-03T04:53:58.467Z,8.30
2022-11-03T04:57:02.474Z,8.30
2022-11-03T05:00:04.613Z,8.30
2022-11-03T05:03:17.088Z,8.30
2022-11-03T05:06:30.447Z,8.40
2022-11-03T05:09:32.249Z,8.40
2022-11-03T05:12:33.959Z,8.30
2022-11-03T05:15:40.720Z,8.40
2022-11-03T05:18:45.935Z,8.50
2022-11-03T05:21:52.620Z,8.50
2022-11-03T05:25:02.976Z,8.50
2022-11-03T05:28:15.609Z,8.50
2022-11-03T05:31:32.061Z,8.50
2022-11-03T05:34:46.191Z,8.50
2022-11-03T05:37:47.911Z,8.50
2022-11-03T05:40:52.548Z,8.50
2022-11-03T05:44:16.483Z,8.50
2022-11-03T05:47:24.322Z,8.50
2022-11-03T05:50:29.138Z,8.40
2022-11-03T05:53:38.351Z,8.40
2022-11-03T05:56:40.036Z,8.40
2022-11-03T05:59:48.136Z,8.40
2022-11-03T06:02:50.039Z,8.50
2022-11-03T06:05:52.873Z,8.60
2022-11-03T06:09:00.049Z,8.40
2022-11-03T06:12:04.891Z,8.50
2022-11-03T06:15:24.445Z,8.40
2022-11-03T06:18:32.208Z,8.50
2022-11-03T06:21:33.841Z,8.50
2022-11-03T06:24:35.597Z,8.50
2022-11-03T06:27:37.387Z,8.50
2022-11-03T06:33:50.047Z,8.60
2022-11-03T06:36:51.663Z,8.60
2022-11-03T06:40:08.384Z,8.60
2022-11-03T06:43:22.595Z,8.60
2022-11-03T06:46:26.265Z,8.60
2022-11-03T06:49:34.114Z,8.70
2022-11-03T06:52:39.776Z,8.70
2022-11-03T06:55:41.591Z,8.70
2022-11-03T06:58:44.097Z,8.80
2022-11-03T07:01:48.578Z,8.80
2022-11-03T07:04:53.335Z,8.80
2022-11-03T07:08:00.583Z,8.80
2022-11-03T07:11:14.672Z,8.80
2022-11-03T07:14:21.040Z,8.80
2022-11-03T07:17:24.074Z,8.80
2022-11-03T07:20:26.283Z,8.80
2022-11-03T07:23:30.976Z,8.90
2022-11-03T07:26:33.681Z,9.00
2022-11-03T07:29:36.547Z,9.00
2022-11-03T07:32:39.489Z,9.20
2022-11-03T07:36:13.841Z,9.20
2022-11-03T07:39:13.402Z,9.50
2022-11-03T07:42:18.002Z,9.40
2022-11-03T07:45:43.452Z,9.50
2022-11-03T07:48:47.215Z,9.40
2022-11-03T07:51:51.133Z,9.50
2022-11-03T07:54:57.195Z,9.50
2022-11-03T07:57:59.564Z,9.50
2022-11-03T08:01:05.497Z,9.70
2022-11-03T08:04:13.843Z,9.50
2022-11-03T08:07:15.496Z,9.50
2022-11-03T08:10:17.272Z,9.50
2022-11-03T08:13:22.025Z,9.60
2022-11-03T08:16:23.751Z,9.70
2022-11-03T08:19:25.420Z,9.80
2022-11-03T08:22:27.067Z,9.70
2022-11-03T08:25:31.530Z,9.80
2022-11-03T08:28:36.222Z,9.60
2022-11-03T08:31:39.061Z,9.90
2022-11-03T08:34:47.986Z,9.90
2022-11-03T08:37:56.912Z,9.70
2022-11-03T08:41:00.747Z,9.90
2022-11-03T08:44:02.383Z,9.90
2022-11-03T08:47:04.081Z,10.00
2022-11-03T08:50:06.375Z,10.20
2022-11-03T08:53:09.085Z,10.20
2022-11-03T08:56:15.892Z,10.30
2022-11-03T08:59:18.850Z,10.40
2022-11-03T09:02:20.588Z,10.50
2022-11-03T09:05:22.251Z,10.60
2022-11-03T09:11:45.410Z,11.10
2022-11-03T09:14:46.992Z,11.40
2022-11-03T09:17:48.677Z,11.50
2022-11-03T09:20:53.350Z,11.70
2022-11-03T09:23:55.114Z,11.70
2022-11-03T09:27:01.091Z,11.80
2022-11-03T09:30:14.185Z,11.90
2022-11-03T09:33:16.315Z,12.10
2022-11-03T09:36:17.955Z,12.30
2022-11-03T09:39:19.634Z,12.40
2022-11-03T09:42:21.862Z,12.50
2022-11-03T09:45:23.515Z,12.60
2022-11-03T09:48:25.959Z,12.50
2022-11-03T09:51:29.833Z,12.40
2022-11-03T09:54:31.598Z,12.50
2022-11-03T09:57:33.232Z,12.50
2022-11-03T10:00:34.882Z,12.50
2022-11-03T10:03:36.685Z,12.60
2022-11-03T10:06:39.252Z,12.50
2022-11-03T10:09:51.156Z,12.40
2022-11-03T10:12:53.484Z,12.30
2022-11-03T10:16:15.941Z,12.10
2022-11-03T10:19:19.740Z,12.00
2022-11-03T10:22:21.910Z,12.00
2022-11-03T10:25:38.618Z,12.00
2022-11-03T10:28:40.406Z,12.00
2022-11-03T10:31:42.338Z,12.00
2022-11-03T10:34:46.120Z,12.10
2022-11-03T10:37:50.048Z,12.20
2022-11-03T10:40:54.316Z,12.30
2022-11-03T10:44:21.991Z,12.30
2022-11-03T10:47:34.174Z,12.20
2022-11-03T10:50:35.893Z,12.20
2022-11-03T10:53:37.851Z,12.10
2022-11-03T10:56:39.477Z,12.10
2022-11-03T10:59:42.413Z,12.10
2022-11-03T11:02:46.113Z,12.10
2022-11-03T11:05:48.482Z,12.10
2022-11-03T11:09:02.296Z,12.20
2022-11-03T11:12:05.138Z,12.30
2022-11-03T11:15:49.132Z,12.20
2022-11-03T11:19:00.521Z,12.20
2022-11-03T11:22:12.732Z,12.20
2022-11-03T11:25:14.695Z,12.20
2022-11-03T11:28:21.660Z,12.30
2022-11-03T11:31:33.432Z,12.20
2022-11-03T11:34:34.995Z,12.20
2022-11-03T11:37:38.180Z,12.20
2022-11-03T11:40:53.867Z,12.20
2022-11-03T11:44:40.094Z,12.20
2022-11-03T11:47:49.844Z,12.20
2022-11-03T11:50:53.436Z,12.20
2022-11-03T11:54:16.764Z,12.20
2022-11-03T11:57:21.508Z,12.20
2022-11-03T12:00:25.750Z,12.30
2022-11-03T12:03:34.780Z,12.10
2022-11-03T12:06:46.864Z,12.20
2022-11-03T12:09:48.554Z,12.10
2022-11-03T12:12:53.043Z,12.10
2022-11-03T12:15:57.819Z,12.10
2022-11-03T12:19:38.389Z,12.10
2022-11-03T12:22:42.078Z,12.10
2022-11-03T12:25:43.692Z,12.10
2022-11-03T12:28:45.564Z,12.10
2022-11-03T12:31:47.781Z,12.10
2022-11-03T12:34:56.463Z,12.30
2022-11-03T12:37:58.051Z,12.10
2022-11-03T12:41:19.659Z,12.10
2022-11-03T12:44:21.419Z,12.20
2022-11-03T12:47:23.297Z,12.10
2022-11-03T12:50:24.909Z,12.10
2022-11-03T12:53:26.592Z,12.10
2022-11-03T12:56:28.218Z,12.20
2022-11-03T12:59:29.826Z,12.10
2022-11-03T13:02:31.651Z,12.20
2022-11-03T13:05:35.922Z,12.10
2022-11-03T13:08:37.804Z,12.20
2022-11-03T13:11:57.951Z,12.10
2022-11-03T13:15:07.088Z,12.10
2022-11-03T13:18:13.799Z,12.20
2022-11-03T13:21:29.312Z,12.20
2022-11-03T13:24:30.934Z,12.20
2022-11-03T13:27:32.529Z,12.20
2022-11-03T13:30:34.142Z,12.20
2022-11-03T13:33:35.752Z,12.10
2022-11-03T13:36:37.382Z,12.20
2022-11-03T13:39:39.007Z,12.20
2022-11-03T13:42:40.652Z,12.20
2022-11-03T13:45:42.289Z,12.20
2022-11-03T13:52:05.600Z,12.20
2022-11-03T14:05:14.007Z,12.20
2022-11-03T14:08:15.617Z,12.30
2022-11-03T14:11:35.631Z,12.30
2022-11-03T14:14:37.417Z,12.20
2022-11-03T14:17:40.306Z,12.20
2022-11-03T14:20:41.910Z,12.10
2022-11-03T14:23:44.081Z,12.10
2022-11-03T14:26:45.765Z,12.10
2022-11-03T14:29:50.623Z,12.10
2022-11-03T14:32:56.770Z,12.10
2022-11-03T14:36:00.941Z,12.00
2022-11-03T14:39:02.662Z,12.10
2022-11-03T14:42:15.207Z,12.00
2022-11-03T14:45:17.260Z,11.90
2022-11-03T14:48:21.883Z,11.90
2022-11-03T14:51:23.535Z,11.80
2022-11-03T14:54:25.639Z,11.90
2022-11-03T14:57:27.363Z,11.90
2022-11-03T15:00:29.121Z,11.90
2022-11-03T15:03:30.881Z,11.80
2022-11-03T15:06:32.536Z,11.80
2022-11-03T15:09:34.127Z,11.80
2022-11-03T15:12:35.746Z,11.80
2022-11-03T15:15:37.425Z,11.80
2022-11-03T15:18:39.066Z,11.70
2022-11-03T15:21:40.772Z,11.80
2022-11-03T15:28:04.251Z,11.70
2022-11-03T15:31:06.203Z,11.70
2022-11-03T15:34:08.959Z,11.70
2022-11-03T15:37:10.764Z,11.70
2022-11-03T15:40:14.698Z,11.80
2022-11-03T15:43:16.533Z,11.80
2022-11-03T15:46:18.867Z,11.70
2022-11-03T15:49:21.750Z,11.90
2022-11-03T15:52:23.430Z,11.90
2022-11-03T15:55:25.305Z,11.70
2022-11-03T15:58:27.024Z,11.70
2022-11-03T16:01:29.599Z,11.70
2022-11-03T16:04:31.292Z,11.90
2022-11-03T16:07:33.467Z,11.80
2022-11-03T16:10:38.279Z,11.60
2022-11-03T16:13:40.046Z,11.80
2022-11-03T16:16:41.642Z,11.70
2022-11-03T16:19:43.300Z,11.60
2022-11-03T16:22:44.983Z,11.50
2022-11-03T16:25:46.628Z,11.50
2022-11-03T16:33:11.203Z,11.50
2022-11-03T16:36:12.839Z,11.50
2022-11-03T16:39:14.497Z,11.50
2022-11-03T16:42:16.202Z,11.50
2022-11-03T16:45:21.864Z,11.40
2022-11-03T16:48:23.526Z,11.40
2022-11-03T16:51:25.758Z,11.40
2022-11-03T16:54:27.419Z,11.50
2022-11-03T16:57:29.062Z,11.60
2022-11-03T17:00:30.777Z,11.50
2022-11-03T17:03:32.416Z,11.50
2022-11-03T17:06:34.071Z,11.50
2022-11-03T17:09:35.756Z,11.40
2022-11-03T17:12:37.732Z,11.40
2022-11-03T17:15:42.434Z,11.50
2022-11-03T17:18:44.046Z,11.40
2022-11-03T17:21:45.702Z,11.40
2022-11-03T17:24:47.326Z,11.50
2022-11-03T17:28:00.854Z,11.40
2022-11-03T17:31:02.484Z,11.40
2022-11-03T17:34:04.662Z,11.40
2022-11-03T17:37:06.590Z,11.30
2022-11-03T17:40:20.114Z,11.30
2022-11-03T17:43:24.922Z,11.30
2022-11-03T17:46:26.831Z,11.20
2022-11-03T17:49:28.455Z,11.20
2022-11-03T17:52:31.721Z,11.20
2022-11-03T17:55:37.372Z,11.30
2022-11-03T17:58:45.991Z,11.30
2022-11-03T18:01:48.543Z,11.20
2022-11-03T18:04:51.363Z,11.20
2022-11-03T18:07:57.340Z,11.20
2022-11-03T18:10:58.973Z,11.30
2022-11-03T18:14:27.982Z,11.20
2022-11-03T18:17:30.250Z,11.20
2022-11-03T18:20:31.864Z,11.20
2022-11-03T18:23:34.770Z,11.30
2022-11-03T18:26:36.448Z,11.30
2022-11-03T18:29:38.066Z,11.30
2022-11-03T18:32:41.250Z,11.40
2022-11-03T18:35:42.916Z,11.30
2022-11-03T18:38:45.240Z,11.30
2022-11-03T18:41:46.898Z,11.40
2022-11-03T18:44:51.800Z,11.40
2022-11-03T18:47:54.049Z,11.30
2022-11-03T18:50:56.612Z,11.40
2022-11-03T18:53:58.829Z,11.40
2022-11-03T18:57:01.264Z,11.40
2022-11-03T19:00:04.687Z,11.30
2022-11-03T19:03:14.281Z,11.30
2022-11-03T19:06:18.304Z,11.30
2022-11-03T19:09:26.452Z,11.30
2022-11-03T19:12:28.066Z,11.30
2022-11-03T19:15:30.163Z,11.30
2022-11-03T19:18:35.506Z,11.40
2022-11-03T19:21:37.132Z,11.30
2022-11-03T19:24:38.843Z,11.40
2022-11-03T19:27:45.668Z,11.40
2022-11-03T19:30:47.920Z,11.40
2022-11-03T19:33:51.318Z,11.40
2022-11-03T19:36:53.291Z,11.40
2022-11-03T19:39:55.756Z,11.40
2022-11-03T19:42:58.026Z,11.40
2022-11-03T19:46:02.647Z,11.40
2022-11-03T19:49:04.522Z,11.40
2022-11-03T19:52:14.031Z,11.50
2022-11-03T19:55:17.506Z,11.50
2022-11-03T19:58:27.884Z,11.40
2022-11-03T20:01:29.750Z,11.40
2022-11-03T20:04:31.522Z,11.50
2022-11-03T20:07:33.306Z,11.40
2022-11-03T20:10:36.510Z,11.50
2022-11-03T20:13:41.726Z,11.50
2022-11-03T20:16:43.360Z,11.40
2022-11-03T20:19:45.074Z,11.50
2022-11-03T20:22:50.705Z,11.40
2022-11-03T20:25:52.582Z,11.50
2022-11-03T20:28:56.110Z,11.50
2022-11-03T20:31:57.751Z,11.40
2022-11-03T20:34:59.363Z,11.40
2022-11-03T20:38:12.104Z,11.40
2022-11-03T20:41:15.373Z,11.50
2022-11-03T20:44:17.121Z,11.60
2022-11-03T20:47:19.181Z,11.50
2022-11-03T20:50:20.965Z,11.50
2022-11-03T20:53:24.828Z,11.50
2022-11-03T20:56:28.173Z,11.50
2022-11-03T20:59:32.099Z,11.50
2022-11-03T21:02:36.359Z,11.50
2022-11-03T21:05:38.053Z,11.50
2022-11-03T21:08:39.937Z,11.50
2022-11-03T21:11:43.342Z,11.50
2022-11-03T21:15:04.985Z,11.50
2022-11-03T21:18:31.220Z,11.50
2022-11-03T21:21:32.846Z,11.50
2022-11-03T21:24:34.450Z,11.40
2022-11-03T21:27:39.249Z,11.50
2022-11-03T21:30:53.218Z,11.40
2022-11-03T21:33:56.886Z,11.30
2022-11-03T21:37:00.794Z,11.20
2022-11-03T21:40:02.488Z,11.20
2022-11-03T21:43:24.452Z,11.10
2022-11-03T21:46:26.082Z,11.10
2022-11-03T21:49:42.658Z,11.10
2022-11-03T21:52:44.265Z,11.10
2022-11-03T21:55:49.465Z,11.10
2022-11-03T21:58:51.132Z,11.20
2022-11-03T22:01:54.977Z,11.20
2022-11-03T22:04:56.981Z,11.10
2022-11-03T22:07:58.644Z,11.20
2022-11-03T22:11:21.982Z,11.20
2022-11-03T22:14:23.698Z,11.20
2022-11-03T22:17:25.380Z,11.20
2022-11-03T22:20:45.679Z,11.20
2022-11-03T22:24:13.426Z,11.20
2022-11-03T22:27:15.126Z,11.10
2022-11-03T22:30:38.343Z,11.10
2022-11-03T22:33:59.938Z,11.20
2022-11-03T22:37:01.637Z,11.20
2022-11-03T22:40:22.407Z,11.20
2022-11-03T22:43:43.849Z,11.20
2022-11-03T22:46:45.562Z,11.20
2022-11-03T22:49:47.613Z,11.20
2022-11-03T22:52:52.310Z,11.20
2022-11-03T22:55:54.019Z,11.30
2022-11-03T22:58:56.179Z,11.30
2022-11-03T23:01:57.923Z,11.40
2022-11-03T23:04:59.670Z,11.30
2022-11-03T23:08:01.773Z,11.30
2022-11-03T23:11:04.731Z,11.30
2022-11-03T23:14:09.357Z,11.40
2022-11-03T23:17:11.190Z,11.40
2022-11-03T23:20:31.604Z,11.50
2022-11-03T23:23:58.708Z,11.50
2022-11-03T23:27:01.218Z,11.40
2022-11-03T23:30:03.027Z,11.50
2022-11-03T23:33:04.775Z,11.50
2022-11-03T23:36:11.905Z,11.50
2022-11-03T23:39:18.335Z,11.60
2022-11-03T23:42:19.974Z,11.60
2022-11-03T23:45:40.141Z,11.60
2022-11-03T23:48:47.920Z,11.50
2022-11-03T23:51:52.322Z,11.60
2022-11-03T23:54:53.956Z,11.60
2022-11-03T23:58:14.337Z,11.60
